Terminal Aerodrome Forecast
Issued by NWS

Home | Current Version | Previous Version | Graphics & Text | Print | Product List | Glossary On
Versions: 1 2 3 4 5 6 7 8 9 10 11 12 13 14 15 16 17 18 19 20
000
FTUS43 KABR 271609 AAB
TAFMBG
TAF AMD
KMBG 271609Z 2716/2812 04018G26KT 6SM -SHRA OVC045
     FM280000 05014KT P6SM SHRA OVC035
     FM280300 04013KT P6SM SHRASN OVC030=

USA.gov is the U.S. government's official web portal to all federal, state and local government web resources and services.